Latest Weather Observations for Mount William

IDV60801

Issued at 10:03 pm EDT Tuesday 24 January 2017 (issued every 30 minutes, with the page automatically refreshed every 10 minutes)

About weather observations | Map of weather stations | Latest weather observations for VIC | Other Formats
Station Details ID: 079103 Name: MOUNT WILLIAM Lat: -37.30 Lon: 142.60 Height: 1150.0 m
Data from the previous 72 hours. | See also: Recent months at Mount William
Date/Time
EDT
Temp
°C
App
Temp
°C
Dew
Point
°C
Rel
Hum
%
Delta-T
°C
Wind Press
QNH
hPa
Press
MSL
hPa
Rain since
9am
mm
Dir  Spd
km/h
Gust
km/h
Spd
kts
Gust
kts
24/10:00pm 6.6 -1.0 5.6 93 0.5 S 35 46 19 25 - - 0.0
24/09:30pm 7.2 -1.3 5.2 87 0.9 SSW 39 52 21 28 - - 0.0
24/09:00pm 7.9 0.2 5.2 83 1.3 S 35 44 19 24 - - 0.0
24/08:30pm 9.0 1.8 5.0 76 1.9 SSW 32 43 17 23 - - 0.0
24/08:00pm 10.2 3.8 5.2 71 2.4 SSW 28 37 15 20 - - 0.0
24/07:30pm 11.3 6.5 5.6 68 2.8 SSW 20 30 11 16 - - 0.0
24/07:00pm 12.2 7.7 6.0 66 3.1 SSW 19 28 10 15 - - 0.0
24/06:30pm 12.4 7.7 6.2 66 3.1 SSW 20 30 11 16 - - 0.0
24/06:00pm 13.5 9.1 7.5 67 3.1 SSW 20 32 11 17 - - 0.0
24/05:30pm 14.3 11.1 8.5 68 3.1 SW 15 33 8 18 - - 0.0
24/05:00pm 14.9 10.9 8.2 64 3.6 WSW 19 30 10 16 - - 0.0
24/04:30pm 15.3 12.7 7.8 61 4.0 SW 11 26 6 14 - - 0.0
24/04:00pm 14.7 11.4 8.0 64 3.6 SW 15 32 8 17 - - 0.0
24/03:30pm 14.3 10.7 6.9 61 3.8 SW 15 28 8 15 - - 0.0
24/03:00pm 14.1 11.0 7.2 63 3.6 WSW 13 24 7 13 - - 0.0
24/02:30pm 14.1 11.1 7.9 66 3.3 WSW 13 24 7 13 - - 0.0
24/02:00pm 13.7 10.5 8.3 70 2.9 SW 15 28 8 15 - - 0.0
24/01:30pm 12.2 9.0 6.9 70 2.7 WSW 13 20 7 11 - - 0.0
24/01:00pm 12.1 9.5 7.6 74 2.3 WSW 11 28 6 15 - - 0.0
24/12:30pm 11.3 7.9 9.0 86 1.2 WSW 17 30 9 16 - - 0.0
24/12:00pm 10.4 7.1 8.2 86 1.1 WSW 15 28 8 15 - - 0.0
24/11:30am 9.9 6.8 8.7 92 0.6 SW 15 32 8 17 - - 0.0
24/11:00am 9.8 6.6 8.6 92 0.6 WSW 15 26 8 14 - - 0.0
24/10:30am 9.1 5.7 9.0 99 0.1 WSW 17 32 9 17 - - 0.0
24/10:00am 8.3 5.0 8.2 99 0.1 WSW 15 30 8 16 - - 0.0
24/09:30am 7.8 2.3 7.7 99 0.1 WSW 26 41 14 22 - - 0.0
24/09:00am 7.1 0.3 7.0 99 0.0 WSW 32 54 17 29 - - 7.6
24/08:38am 6.7 -1.1 6.6 99 0.0 SW 37 56 20 30 - - 7.6
24/08:30am 7.1 -0.6 7.0 99 0.0 SW 37 56 20 30 - - 7.6
24/08:00am 6.6 -0.5 6.5 99 0.0 SW 33 54 18 29 - - 7.6
24/07:30am 7.2 0.3 7.1 99 0.0 SW 33 56 18 30 - - 7.6
24/07:02am 7.5 1.6 7.4 99 0.1 WSW 28 46 15 25 - - 7.6
24/07:00am 7.8 2.7 7.7 99 0.1 SW 24 46 13 25 - - 7.6
24/06:30am 9.0 2.7 8.9 99 0.1 WSW 32 54 17 29 - - 7.6
24/06:00am 9.2 2.0 9.1 99 0.1 WSW 37 65 20 35 - - 7.6
24/05:31am 9.8 4.5 9.7 99 0.1 W 28 52 15 28 - - 7.4
24/05:30am 10.0 5.1 9.9 99 0.1 W 26 50 14 27 - - 7.4
24/05:05am 10.0 4.7 9.9 99 0.1 W 28 59 15 32 - - 7.4
24/05:00am 10.1 6.0 10.0 99 0.1 W 22 50 12 27 - - 7.4
24/04:30am 10.7 4.2 10.5 99 0.1 WSW 35 61 19 33 - - 7.4
24/04:16am 11.4 6.5 11.2 99 0.1 WSW 28 54 15 29 - - 7.4
24/04:00am 12.2 8.3 12.0 99 0.1 W 24 48 13 26 - - 7.4
24/03:41am 13.0 8.6 12.8 99 0.1 W 28 65 15 35 - - 7.2
24/03:30am 13.4 9.8 13.2 99 0.1 WSW 24 48 13 26 - - 7.2
24/03:00am 14.4 12.1 14.2 99 0.1 W 19 46 10 25 - - 7.2
24/02:42am 15.0 11.3 15.0 100 0.0 WSW 28 59 15 32 - - 7.0
24/02:30am 15.4 14.3 15.4 100 0.0 W 15 41 8 22 - - 7.0
24/02:00am 16.2 13.7 16.2 100 0.0 W 24 41 13 22 - - 6.8
24/01:35am 16.4 12.5 16.4 100 0.0 W 32 50 17 27 - - 6.2
24/01:30am 16.4 11.9 16.4 100 0.0 W 35 52 19 28 - - 6.0
24/01:06am 16.6 12.6 16.6 100 0.0 W 33 56 18 30 - - 5.4
24/01:00am 16.6 12.6 16.6 100 0.0 W 33 50 18 27 - - 5.2
24/12:30am 16.6 12.6 16.6 100 0.0 W 33 54 18 29 - - 5.0
24/12:00am 16.6 11.4 16.6 100 0.0 W 39 59 21 32 - - 5.0
 
Date/Time
EDT
Temp
°C
App
Temp
°C
Dew
Point
°C
Rel
Hum
%
Delta-T
°C
Wind Press
QNH
hPa
Press
MSL
hPa
Rain since
9am
mm
Dir  Spd
km/h
Gust
km/h
Spd
kts
Gust
kts
23/11:37pm 16.6 11.8 16.6 100 0.0 W 37 57 20 31 - - 4.8
23/11:30pm 16.6 11.4 16.6 100 0.0 W 39 54 21 29 - - 4.8
23/11:00pm 16.7 11.6 16.7 100 0.0 W 39 57 21 31 - - 4.8
23/10:30pm 16.9 11.1 16.9 100 0.0 W 43 61 23 33 - - 4.6
23/10:00pm 16.9 11.8 16.7 99 0.1 W 39 57 21 31 - - 4.6
23/09:59pm 16.9 11.8 16.7 99 0.1 W 39 57 21 31 - - 4.6
23/09:30pm 17.0 10.6 16.8 99 0.1 W 46 59 25 32 - - 4.6
23/09:00pm 16.8 10.7 16.6 99 0.1 WNW 44 61 24 33 - - 4.6
23/08:30pm 16.2 9.3 14.6 90 1.0 WNW 44 63 24 34 - - 4.4
23/08:00pm 15.8 6.6 13.3 85 1.5 WNW 54 76 29 41 - - 4.0
23/07:45pm 16.3 8.3 13.4 83 1.7 WNW 48 72 26 39 - - 4.0
23/07:44pm 16.8 9.2 13.7 82 1.9 WNW 46 72 25 39 - - 4.0
23/07:37pm 16.1 10.7 13.9 87 1.3 WNW 35 56 19 30 - - 4.0
23/07:30pm 15.2 9.7 13.7 91 0.9 WNW 35 48 19 26 - - 4.0
23/07:03pm 14.3 7.9 13.2 93 0.6 W 39 69 21 37 - - 2.2
23/07:00pm 14.5 8.5 13.4 93 0.6 W 37 48 20 26 - - 2.0
23/06:30pm 16.3 9.4 12.7 79 2.1 W 41 56 22 30 - - 0.2
23/06:00pm 17.1 10.2 12.8 76 2.5 WSW 41 48 22 26 - - 0.0
23/05:30pm 17.8 13.0 12.9 73 2.9 WSW 30 39 16 21 - - 0.0
23/05:14pm 18.3 11.8 13.0 71 3.1 WSW 39 57 21 31 - - 0.0
23/05:00pm 20.5 13.9 11.4 56 5.3 WSW 37 54 20 29 - - 0.0
23/04:54pm 21.6 17.6 10.4 49 6.5 WSW 22 48 12 26 - - 0.0
23/04:30pm 24.1 21.4 8.9 38 8.6 W 13 22 7 12 - - 0.0
23/04:00pm 24.7 21.5 9.8 39 8.6 WSW 17 24 9 13 - - 0.0
23/03:30pm 25.6 22.1 8.6 34 9.7 W 17 30 9 16 - - 0.0
23/03:00pm 24.7 20.2 8.6 36 9.1 W 22 39 12 21 - - 0.0
23/02:30pm 24.4 20.5 8.8 37 8.9 W 19 28 10 15 - - 0.0
23/02:00pm 24.8 21.5 7.9 34 9.5 W 15 30 8 16 - - 0.0
23/01:30pm 24.9 21.2 8.0 34 9.5 WNW 17 24 9 13 - - 0.0
23/01:00pm 25.4 21.2 8.4 34 9.6 NW 20 33 11 18 - - 0.0
23/12:30pm 27.0 23.5 8.9 32 10.4 NW 17 24 9 13 - - 0.0
23/12:00pm 25.6 21.5 8.6 34 9.7 NW 20 32 11 17 - - 0.0
23/11:30am 25.5 21.6 8.5 34 9.7 NW 19 28 10 15 - - 0.0
23/11:00am 25.5 21.7 8.9 35 9.5 NW 19 28 10 15 - - 0.0
23/10:30am 23.6 18.9 7.7 36 8.8 NNW 22 33 12 18 - - 0.0
23/10:00am 22.7 17.3 4.7 31 9.4 NW 22 32 12 17 - - 0.0
23/09:30am 22.0 16.5 4.1 31 9.2 NW 22 32 12 17 - - 0.0
23/09:00am 20.1 14.0 2.9 32 8.6 NW 24 33 13 18 - - 0.0
23/08:30am 20.5 14.0 2.8 31 8.8 NNW 26 41 14 22 - - 0.0
23/08:00am 20.4 14.3 2.7 31 8.8 NNW 24 35 13 19 - - 0.0
23/07:30am 20.2 14.3 3.9 34 8.3 NNW 24 39 13 21 - - 0.0
23/07:00am 20.4 14.7 2.7 31 8.8 NNW 22 41 12 22 - - 0.0
23/06:30am 20.5 13.9 2.3 30 9.0 NNW 26 37 14 20 - - 0.0
23/06:00am 20.3 15.0 3.1 32 8.6 N 20 30 11 16 - - 0.0
23/05:30am 20.2 15.1 3.9 34 8.3 N 20 32 11 17 - - 0.0
23/05:00am 20.9 14.1 3.2 31 8.9 NNW 28 37 15 20 - - 0.0
23/04:30am 20.3 14.1 4.4 35 8.2 NNW 26 37 14 20 - - 0.0
23/04:00am 20.3 14.9 4.4 35 8.2 N 22 32 12 17 - - 0.0
23/03:30am 20.1 14.0 5.0 37 7.8 N 26 41 14 22 - - 0.0
23/03:00am 20.1 14.3 4.6 36 8.0 N 24 41 13 22 - - 0.0
23/02:30am 20.4 14.9 4.0 34 8.4 NNE 22 33 12 18 - - 0.0
23/02:00am 20.7 15.1 3.4 32 8.7 NNE 22 32 12 17 - - 0.0
23/01:30am 20.9 15.3 3.2 31 8.9 N 22 32 12 17 - - 0.0
23/01:00am 20.8 15.1 3.1 31 8.9 N 22 28 12 15 - - 0.0
23/12:30am 20.8 15.6 3.5 32 8.8 NNE 20 28 11 15 - - 0.0
23/12:00am 20.8 15.8 3.5 32 8.8 NNE 19 28 10 15 - - 0.0
 
Date/Time
EDT
Temp
°C
App
Temp
°C
Dew
Point
°C
Rel
Hum
%
Delta-T
°C
Wind Press
QNH
hPa
Press
MSL
hPa
Rain since
9am
mm
Dir  Spd
km/h
Gust
km/h
Spd
kts
Gust
kts
22/11:30pm 21.1 16.0 2.9 30 9.1 NNE 19 26 10 14 - - 0.0
22/11:00pm 21.2 16.2 3.4 31 9.0 NNE 19 24 10 13 - - 0.0
22/10:30pm 21.0 16.3 3.2 31 9.0 N 17 22 9 12 - - 0.0
22/10:00pm 20.9 17.1 4.0 33 8.6 N 13 15 7 8 - - 0.0
22/09:30pm 21.1 18.7 4.2 33 8.7 NNW 6 7 3 4 - - 0.0
22/09:00pm 20.7 17.1 5.1 36 8.1 NNE 13 15 7 8 - - 0.0
22/08:30pm 21.0 18.1 4.6 34 8.5 NNE 9 13 5 7 - - 0.0
22/08:00pm 21.4 20.0 5.7 36 8.3 NW 2 13 1 7 - - 0.0
22/07:30pm 21.9 19.9 7.0 38 8.1 W 7 9 4 5 - - 0.0
22/07:00pm 23.2 20.9 7.3 36 8.7 W 9 17 5 9 - - 0.0
22/06:30pm 24.2 21.2 4.0 27 10.5 W 9 15 5 8 - - 0.0
22/06:00pm 24.6 22.6 6.4 31 9.9 NW 6 13 3 7 - - 0.0
22/05:30pm 24.9 23.1 7.1 32 9.8 N 6 9 3 5 - - 0.0
22/05:00pm 24.4 22.8 4.7 28 10.4 N 2 9 1 5 - - 0.0
22/04:30pm 25.9 25.1 8.0 32 10.1 NNE 2 9 1 5 - - 0.0
22/04:00pm 23.9 22.1 5.3 30 9.9 N 4 9 2 5 - - 0.0
22/03:30pm 24.9 23.6 7.5 33 9.7 N 4 9 2 5 - - 0.0
22/03:00pm 25.3 24.1 7.9 33 9.8 NE 4 9 2 5 - - 0.0
22/02:30pm 23.9 21.9 7.1 34 9.2 ENE 7 15 4 8 - - 0.0
22/02:00pm 23.7 21.9 7.8 36 8.8 NNE 7 15 4 8 - - 0.0
22/01:30pm 23.7 21.9 7.8 36 8.8 NNE 7 15 4 8 - - 0.0
22/01:00pm 23.4 20.4 7.5 36 8.8 NNE 13 20 7 11 - - 0.0
22/12:30pm 22.9 20.9 8.6 40 8.0 NE 9 15 5 8 - - 0.0
22/12:00pm 21.5 18.7 8.4 43 7.3 NE 13 19 7 10 - - 0.0
22/11:30am 21.0 17.3 8.0 43 7.2 NE 17 22 9 12 - - 0.0
22/11:00am 21.2 17.9 8.1 43 7.2 NE 15 20 8 11 - - 0.0
22/10:30am 20.9 17.7 5.3 36 8.2 NE 11 15 6 8 - - 0.0
22/10:00am 20.8 16.4 2.6 30 9.1 NE 15 17 8 9 - - 0.0
22/09:30am 19.9 14.7 2.3 31 8.7 NE 19 20 10 11 - - 0.0
22/09:00am 19.0 14.4 3.6 36 7.7 ENE 17 20 9 11 - - 0.2
22/08:30am 18.3 14.9 4.1 39 7.1 ENE 11 13 6 7 - - 0.2
22/08:00am 17.1 14.2 4.4 43 6.4 ENE 9 11 5 6 - - 0.2
22/07:30am 15.9 14.7 4.6 47 5.7 CALM 0 7 0 4 - - 0.2
22/07:00am 14.4 12.9 2.9 46 5.5 CALM 0 0 0 0 - - 0.2
22/06:30am 14.7 13.8 6.0 56 4.4 CALM 0 0 0 0 - - 0.2
22/06:00am 14.5 13.3 4.8 52 4.8 CALM 0 0 0 0 - - 0.2
22/05:30am 14.0 13.1 6.1 59 4.0 CALM 0 0 0 0 - - 0.2
22/05:00am 13.6 12.9 6.9 64 3.5 CALM 0 0 0 0 - - 0.2
22/04:30am 13.7 13.0 6.8 63 3.6 CALM 0 0 0 0 - - 0.2
22/04:00am 12.8 12.3 7.7 71 2.7 CALM 0 0 0 0 - - 0.2
22/03:30am 12.9 12.1 6.7 66 3.2 CALM 0 0 0 0 - - 0.2
22/03:00am 13.3 12.2 7.1 66 3.2 SE 2 7 1 4 - - 0.2
22/02:30am 13.6 11.1 6.5 62 3.6 SSE 9 11 5 6 - - 0.2
22/02:00am 13.9 11.1 7.0 63 3.6 SE 11 13 6 7 - - 0.2
22/01:30am 13.9 10.8 7.2 64 3.5 SE 13 13 7 7 - - 0.2
22/01:00am 14.0 11.2 6.8 62 3.7 SE 11 13 6 7 - - 0.2
22/12:30am 12.7 9.5 4.9 59 3.8 SW 11 15 6 8 - - 0.2
22/12:00am 10.3 6.3 8.4 88 1.0 SSW 19 28 10 15 - - 0.2
 
Date/Time
EDT
Temp
°C
App
Temp
°C
Dew
Point
°C
Rel
Hum
%
Delta-T
°C
Wind Press
QNH
hPa
Press
MSL
hPa
Rain since
9am
mm
Dir  Spd
km/h
Gust
km/h
Spd
kts
Gust
kts
21/11:30pm 10.0 5.1 8.4 90 0.8 S 24 28 13 15 - - 0.2
21/11:00pm 10.1 5.6 8.4 89 0.9 S 22 26 12 14 - - 0.2
21/10:30pm 10.1 4.0 8.2 88 1.0 S 30 33 16 18 - - 0.2

Other Formats:

Comma delimited format used in spreadsheet applications
http://www.bom.gov.au/fwo/IDV60801/IDV60801.94833.axf

JavaScript Object Notation format (JSON) in row-major order
http://www.bom.gov.au/fwo/IDV60801/IDV60801.94833.json